createdAt,value
2019-03-18T00:01:07.470Z,1003.5
2019-03-18T00:02:19.568Z,1003.5
2019-03-18T00:03:31.782Z,1003.5
2019-03-18T00:04:43.962Z,1003.6
2019-03-18T00:05:56.240Z,1003.5
2019-03-18T00:08:21.090Z,1003.6
2019-03-18T00:09:32.756Z,1003.6
2019-03-18T00:10:44.954Z,1003.6
2019-03-18T00:11:57.206Z,1003.6
2019-03-18T00:13:09.391Z,1003.6
2019-03-18T00:14:21.615Z,1003.6
2019-03-18T00:15:33.712Z,1003.6
2019-03-18T00:16:45.973Z,1003.6
2019-03-18T00:17:59.166Z,1003.6
2019-03-18T00:19:10.445Z,1003.6
2019-03-18T00:20:22.486Z,1003.6
2019-03-18T00:21:34.770Z,1003.6
2019-03-18T00:22:46.878Z,1003.6
2019-03-18T00:23:59.075Z,1003.5
2019-03-18T00:25:11.283Z,1003.5
2019-03-18T00:26:23.530Z,1003.6
2019-03-18T00:27:35.690Z,1003.6
2019-03-18T00:28:48.032Z,1003.6
2019-03-18T00:30:00.119Z,1003.6
2019-03-18T00:31:12.414Z,1003.6
2019-03-18T00:32:24.441Z,1003.6
2019-03-18T00:33:36.652Z,1003.6
2019-03-18T00:34:48.818Z,1003.7
2019-03-18T00:36:01.030Z,1003.7
2019-03-18T00:37:13.207Z,1003.7
2019-03-18T00:38:25.501Z,1003.7
2019-03-18T00:39:37.596Z,1003.7
2019-03-18T00:40:49.966Z,1003.7
2019-03-18T00:42:01.996Z,1003.7
2019-03-18T00:43:14.353Z,1003.7
2019-03-18T00:44:26.468Z,1003.8
2019-03-18T00:45:38.686Z,1003.8
2019-03-18T00:46:50.767Z,1003.8
2019-03-18T00:48:02.980Z,1003.8
2019-03-18T00:49:15.150Z,1003.8
2019-03-18T00:50:27.431Z,1003.8
2019-03-18T00:51:39.625Z,1003.8
2019-03-18T00:52:51.828Z,1003.8
2019-03-18T00:54:03.961Z,1003.8
2019-03-18T00:55:16.432Z,1003.9
2019-03-18T00:56:28.310Z,1003.8
2019-03-18T00:57:40.514Z,1003.9
2019-03-18T00:58:52.706Z,1003.9
2019-03-18T01:00:04.947Z,1003.9
2019-03-18T01:01:17.183Z,1003.9
2019-03-18T01:02:29.292Z,1003.9
2019-03-18T01:03:41.583Z,1003.9
2019-03-18T01:04:53.672Z,1003.8
2019-03-18T01:06:05.875Z,1003.9
2019-03-18T01:07:18.228Z,1003.8
2019-03-18T01:08:30.350Z,1003.9
2019-03-18T01:09:42.531Z,1003.8
2019-03-18T01:10:54.736Z,1003.9
2019-03-18T01:12:06.866Z,1004
2019-03-18T01:13:19.107Z,1003.9
2019-03-18T01:14:31.266Z,1003.9
2019-03-18T01:15:43.500Z,1004
2019-03-18T01:16:55.615Z,1004
2019-03-18T01:18:07.815Z,1004
2019-03-18T01:19:20.803Z,1004
2019-03-18T01:20:32.272Z,1004
2019-03-18T01:21:44.446Z,1004.1
2019-03-18T01:22:56.578Z,1004.1
2019-03-18T01:24:08.775Z,1004.1
2019-03-18T01:25:21.032Z,1004
2019-03-18T01:26:33.296Z,1004
2019-03-18T01:27:45.540Z,1004.1
2019-03-18T01:28:57.592Z,1004.1
2019-03-18T01:30:09.816Z,1004.1
2019-03-18T01:31:22.157Z,1004.1
2019-03-18T01:32:34.150Z,1004.1
2019-03-18T01:33:46.788Z,1004
2019-03-18T01:34:58.590Z,1004.1
2019-03-18T01:36:10.717Z,1004.1
2019-03-18T01:37:22.992Z,1004.1
2019-03-18T01:38:35.124Z,1004.1
2019-03-18T01:39:47.373Z,1004.1
2019-03-18T01:40:59.512Z,1004.1
2019-03-18T01:42:16.512Z,1004.1
2019-03-18T01:43:23.982Z,1004.1
2019-03-18T01:44:36.156Z,1004.2
2019-03-18T01:45:48.261Z,1004.2
2019-03-18T01:47:00.464Z,1004.1
2019-03-18T01:48:12.769Z,1004.2
2019-03-18T01:49:24.851Z,1004.2
2019-03-18T01:50:37.042Z,1004.2
2019-03-18T01:51:49.332Z,1004.1
2019-03-18T01:53:01.470Z,1004.1
2019-03-18T01:54:13.632Z,1004.1
2019-03-18T01:55:25.985Z,1004.1
2019-03-18T01:56:38.025Z,1004.1
2019-03-18T01:57:50.205Z,1004.2
2019-03-18T01:59:02.419Z,1004.1
2019-03-18T02:00:14.611Z,1004.1
2019-03-18T02:01:26.788Z,1004.1
2019-03-18T02:02:39.095Z,1004.1
2019-03-18T02:03:51.177Z,1004
2019-03-18T02:05:03.395Z,1004.1
2019-03-18T02:06:15.667Z,1004.1
2019-03-18T02:07:27.865Z,1004
2019-03-18T02:08:40.047Z,1004
2019-03-18T02:09:52.213Z,1004
2019-03-18T02:11:04.332Z,1003.9
2019-03-18T02:12:16.532Z,1004
2019-03-18T02:13:28.724Z,1004
2019-03-18T02:14:42.083Z,1004
2019-03-18T02:15:53.220Z,1004
2019-03-18T02:17:05.382Z,1004.1
2019-03-18T02:18:17.584Z,1004.1
2019-03-18T02:19:29.852Z,1004.2
2019-03-18T02:20:41.946Z,1004.2
2019-03-18T02:21:54.097Z,1004.1
2019-03-18T02:23:06.281Z,1004.2
2019-03-18T02:24:18.564Z,1004.2
2019-03-18T02:25:30.813Z,1004.2
2019-03-18T02:26:44.122Z,1004.2
2019-03-18T02:27:55.051Z,1004.2
2019-03-18T02:29:07.359Z,1004.2
2019-03-18T02:30:19.466Z,1004.2
2019-03-18T02:31:31.801Z,1004.2
2019-03-18T02:32:43.955Z,1004.2
2019-03-18T02:33:56.043Z,1004.2
2019-03-18T02:35:08.452Z,1004.2
2019-03-18T02:36:23.441Z,1004.2
2019-03-18T02:37:35.144Z,1004.1
2019-03-18T02:38:45.013Z,1004.1
2019-03-18T02:39:57.109Z,1004.2
2019-03-18T02:41:09.215Z,1004.2
2019-03-18T02:42:21.454Z,1004.2
2019-03-18T02:43:33.663Z,1004.2
2019-03-18T02:44:45.811Z,1004.2
2019-03-18T02:45:57.975Z,1004.2
2019-03-18T02:47:10.185Z,1004.2
2019-03-18T02:48:22.374Z,1004.2
2019-03-18T02:49:34.553Z,1004.2
2019-03-18T02:50:46.742Z,1004.2
2019-03-18T02:51:59.013Z,1004.2
2019-03-18T02:53:11.168Z,1004.2
2019-03-18T02:54:23.322Z,1004.2
2019-03-18T02:55:35.637Z,1004.2
2019-03-18T02:56:47.773Z,1004.2
2019-03-18T02:57:59.952Z,1004.2
2019-03-18T02:59:12.108Z,1004.2
2019-03-18T03:00:24.314Z,1004.1
2019-03-18T03:01:36.507Z,1004.2
2019-03-18T03:02:48.721Z,1004.2
2019-03-18T03:04:00.971Z,1004.2
2019-03-18T03:05:13.185Z,1004.2
2019-03-18T03:06:25.269Z,1004.2
2019-03-18T03:07:37.567Z,1004.2
2019-03-18T03:08:49.742Z,1004.2
2019-03-18T03:10:02.042Z,1004.2
2019-03-18T03:11:14.140Z,1004.2
2019-03-18T03:12:26.390Z,1004.2
2019-03-18T03:13:38.467Z,1004.2
2019-03-18T03:14:50.636Z,1004.2
2019-03-18T03:16:02.851Z,1004.2
2019-03-18T03:17:15.028Z,1004.2
2019-03-18T03:18:27.217Z,1004.2
2019-03-18T03:19:39.510Z,1004.2
2019-03-18T03:20:51.671Z,1004.2
2019-03-18T03:22:03.930Z,1004.2
2019-03-18T03:23:16.087Z,1004.2
2019-03-18T03:24:28.315Z,1004.2
2019-03-18T03:25:40.399Z,1004.2
2019-03-18T03:26:52.581Z,1004.2
2019-03-18T03:28:04.773Z,1004.2
2019-03-18T03:29:17.147Z,1004.1
2019-03-18T03:30:29.172Z,1004.1
2019-03-18T03:31:41.530Z,1004.1
2019-03-18T03:32:53.721Z,1004.1
2019-03-18T03:34:05.879Z,1004.2
2019-03-18T03:35:18.025Z,1004.2
2019-03-18T03:36:30.201Z,1004.2
2019-03-18T03:37:42.418Z,1004.2
2019-03-18T03:38:54.559Z,1004.2
2019-03-18T03:40:06.890Z,1004.1
2019-03-18T03:41:18.914Z,1004.2
2019-03-18T03:42:31.167Z,1004.2
2019-03-18T03:43:43.435Z,1004.2
2019-03-18T03:44:55.515Z,1004.3
2019-03-18T03:46:07.755Z,1004.3
2019-03-18T03:47:19.980Z,1004.3
2019-03-18T03:48:32.190Z,1004.3
2019-03-18T03:49:44.392Z,1004.4
2019-03-18T03:50:56.570Z,1004.4
2019-03-18T03:52:08.722Z,1004.4
2019-03-18T03:53:20.884Z,1004.4
2019-03-18T03:54:33.075Z,1004.4
2019-03-18T03:55:45.383Z,1004.4
2019-03-18T03:56:57.460Z,1004.4
2019-03-18T03:58:09.664Z,1004.4
2019-03-18T03:59:21.860Z,1004.4
2019-03-18T04:00:34.126Z,1004.5
2019-03-18T04:01:46.393Z,1004.5
2019-03-18T04:02:58.521Z,1004.5
2019-03-18T04:04:10.656Z,1004.5
2019-03-18T04:05:22.846Z,1004.5
2019-03-18T04:06:35.027Z,1004.6
2019-03-18T04:07:47.400Z,1004.5
2019-03-18T04:08:59.594Z,1004.6
2019-03-18T04:10:11.813Z,1004.6
2019-03-18T04:11:23.889Z,1004.6
2019-03-18T04:12:36.084Z,1004.6
2019-03-18T04:13:48.368Z,1004.7
2019-03-18T04:15:00.398Z,1004.6
2019-03-18T04:16:12.611Z,1004.7
2019-03-18T04:17:24.914Z,1004.7
2019-03-18T04:18:37.097Z,1004.8
2019-03-18T04:19:49.274Z,1004.8
2019-03-18T04:21:01.421Z,1004.8
2019-03-18T04:22:13.664Z,1004.8
2019-03-18T04:23:25.996Z,1004.8
2019-03-18T04:24:37.969Z,1004.8
2019-03-18T04:25:50.160Z,1004.8
2019-03-18T04:27:02.450Z,1004.9
2019-03-18T04:28:14.548Z,1004.9
2019-03-18T04:29:26.955Z,1004.9
2019-03-18T04:30:38.946Z,1004.9
2019-03-18T04:31:51.361Z,1004.9
2019-03-18T04:33:03.337Z,1005
2019-03-18T04:34:15.717Z,1005
2019-03-18T04:35:27.731Z,1005
2019-03-18T04:36:39.926Z,1005.1
2019-03-18T04:37:52.286Z,1005.1
2019-03-18T04:39:04.576Z,1005.1
2019-03-18T04:40:16.572Z,1005.1
2019-03-18T04:41:28.708Z,1005.1
2019-03-18T04:42:40.923Z,1005.2
2019-03-18T04:43:53.317Z,1005.2
2019-03-18T04:45:05.384Z,1005.2
2019-03-18T04:46:17.700Z,1005.2
2019-03-18T04:47:29.689Z,1005.2
2019-03-18T04:48:41.963Z,1005.2
2019-03-18T04:49:54.084Z,1005.3
2019-03-18T04:51:06.257Z,1005.3
2019-03-18T04:52:18.452Z,1005.2
2019-03-18T04:53:30.798Z,1005.2
2019-03-18T04:54:42.862Z,1005.3
2019-03-18T04:55:55.128Z,1005.3
2019-03-18T04:57:07.243Z,1005.4
2019-03-18T04:58:19.436Z,1005.4
2019-03-18T04:59:31.624Z,1005.5
2019-03-18T05:00:43.820Z,1005.5
2019-03-18T05:01:56.032Z,1005.5
2019-03-18T05:03:08.359Z,1005.5
2019-03-18T05:04:20.411Z,1005.5
2019-03-18T05:05:32.605Z,1005.6
2019-03-18T05:06:44.928Z,1005.6
2019-03-18T05:07:57.182Z,1005.6
2019-03-18T05:09:09.274Z,1005.6
2019-03-18T05:10:21.407Z,1005.6
2019-03-18T05:11:33.668Z,1005.6
2019-03-18T05:12:45.784Z,1005.5
2019-03-18T05:13:58.075Z,1005.6
2019-03-18T05:15:10.214Z,1005.6
2019-03-18T05:16:22.384Z,1005.6
2019-03-18T05:17:34.570Z,1005.7
2019-03-18T05:18:46.861Z,1005.7
2019-03-18T05:19:59.046Z,1005.7
2019-03-18T05:21:11.300Z,1005.8
2019-03-18T05:22:23.430Z,1005.7
2019-03-18T05:23:35.661Z,1005.8
2019-03-18T05:24:47.851Z,1005.8
2019-03-18T05:25:59.925Z,1005.8
2019-03-18T05:27:12.159Z,1005.8
2019-03-18T05:28:24.362Z,1005.9
2019-03-18T05:29:36.561Z,1005.8
2019-03-18T05:30:48.823Z,1005.9
2019-03-18T05:32:01.090Z,1005.8
2019-03-18T05:33:13.109Z,1005.8
2019-03-18T05:34:25.418Z,1005.9
2019-03-18T05:35:37.575Z,1005.8
2019-03-18T05:36:50.318Z,1005.8
2019-03-18T05:45:21.586Z,1005.9
2019-03-18T05:46:27.344Z,1006
2019-03-18T05:47:39.455Z,1006
2019-03-18T05:48:51.666Z,1006.1
2019-03-18T05:50:03.923Z,1006.1
2019-03-18T05:51:18.538Z,1006.1
2019-03-18T05:52:29.889Z,1006.1
2019-03-18T05:53:40.431Z,1006.2
2019-03-18T05:54:52.643Z,1006.2
2019-03-18T05:56:04.990Z,1006.2
2019-03-18T05:57:17.059Z,1006.3
2019-03-18T05:58:29.222Z,1006.3
2019-03-18T05:59:41.484Z,1006.3
2019-03-18T06:00:53.696Z,1006.3
2019-03-18T06:02:05.809Z,1006.3
2019-03-18T06:03:18.041Z,1006.3
2019-03-18T06:04:30.245Z,1006.3
2019-03-18T06:05:42.382Z,1006.3
2019-03-18T06:06:54.660Z,1006.4
2019-03-18T06:08:06.946Z,1006.4
2019-03-18T06:09:18.985Z,1006.3
2019-03-18T06:10:31.283Z,1006.3
2019-03-18T06:11:43.460Z,1006.4
2019-03-18T06:12:55.613Z,1006.4
2019-03-18T06:14:07.764Z,1006.4
2019-03-18T06:15:19.958Z,1006.4
2019-03-18T06:16:32.171Z,1006.5
2019-03-18T06:17:44.424Z,1006.5
2019-03-18T06:18:56.631Z,1006.5
2019-03-18T06:20:08.837Z,1006.5
2019-03-18T06:21:22.004Z,1006.5
2019-03-18T06:22:33.233Z,1006.6
2019-03-18T06:23:45.346Z,1006.6
2019-03-18T06:24:57.535Z,1006.6
2019-03-18T06:26:09.904Z,1006.6
2019-03-18T06:27:22.029Z,1006.6
2019-03-18T06:28:34.204Z,1006.7
2019-03-18T06:29:46.447Z,1006.7
2019-03-18T06:30:58.506Z,1006.7
2019-03-18T06:32:10.789Z,1006.7
2019-03-18T06:33:22.952Z,1006.8
2019-03-18T06:34:35.214Z,1006.8
2019-03-18T06:35:47.327Z,1006.8
2019-03-18T06:36:59.500Z,1006.8
2019-03-18T06:38:11.655Z,1006.8
2019-03-18T06:39:24.040Z,1006.9
2019-03-18T06:40:36.127Z,1006.9
2019-03-18T06:41:48.480Z,1006.9
2019-03-18T06:43:00.545Z,1007
2019-03-18T06:44:12.735Z,1007
2019-03-18T06:45:24.838Z,1007
2019-03-18T06:46:37.170Z,1007
2019-03-18T06:47:49.225Z,1007.1
2019-03-18T06:49:01.428Z,1007.1
2019-03-18T06:50:13.621Z,1007.1
2019-03-18T06:51:25.826Z,1007
2019-03-18T06:52:38.011Z,1007.1
2019-03-18T06:53:50.293Z,1007.1
2019-03-18T06:55:02.590Z,1007
2019-03-18T06:56:14.629Z,1007.1
2019-03-18T06:57:26.821Z,1007.2
2019-03-18T06:58:39.002Z,1007.1
2019-03-18T06:59:51.196Z,1007.2
2019-03-18T07:01:03.379Z,1007.2
2019-03-18T07:02:15.581Z,1007.1
2019-03-18T07:03:28.833Z,1007.2
2019-03-18T07:04:40.065Z,1007.2
2019-03-18T07:05:52.432Z,1007.3
2019-03-18T07:07:08.505Z,1007.3
2019-03-18T07:08:20.183Z,1007.3
2019-03-18T07:09:30.929Z,1007.3
2019-03-18T07:10:43.985Z,1007.2
2019-03-18T07:11:53.127Z,1007.2
2019-03-18T07:13:05.542Z,1007.2
2019-03-18T07:14:17.667Z,1007.2
2019-03-18T07:15:29.760Z,1007.3
2019-03-18T07:16:42.080Z,1007.3
2019-03-18T07:17:54.288Z,1007.2
2019-03-18T07:19:06.403Z,1007.2
2019-03-18T07:20:18.676Z,1007.2
2019-03-18T07:21:30.785Z,1007.3
2019-03-18T07:22:43.352Z,1007.3
2019-03-18T07:23:55.085Z,1007.3
2019-03-18T07:25:07.352Z,1007.3
2019-03-18T07:26:19.581Z,1007.4
2019-03-18T07:27:31.757Z,1007.4
2019-03-18T07:28:43.954Z,1007.3
2019-03-18T07:29:56.108Z,1007.4
2019-03-18T07:31:09.897Z,1007.4
2019-03-18T07:32:20.551Z,1007.5
2019-03-18T07:33:32.655Z,1007.4
2019-03-18T07:34:45.078Z,1007.5
2019-03-18T07:35:57.136Z,1007.5
2019-03-18T07:37:09.321Z,1007.6
2019-03-18T07:38:21.558Z,1007.5
2019-03-18T07:39:33.620Z,1007.6
2019-03-18T07:40:45.826Z,1007.6
2019-03-18T07:41:58.079Z,1007.6
2019-03-18T07:43:10.459Z,1007.6
2019-03-18T07:44:22.508Z,1007.7
2019-03-18T07:45:34.790Z,1007.6
2019-03-18T07:46:46.813Z,1007.7
2019-03-18T07:47:58.995Z,1007.7
2019-03-18T07:49:11.448Z,1007.7
2019-03-18T07:50:23.466Z,1007.7
2019-03-18T07:51:35.697Z,1007.8
2019-03-18T07:52:47.796Z,1007.8
2019-03-18T07:53:59.977Z,1007.9
2019-03-18T07:55:12.284Z,1007.9
2019-03-18T07:56:24.461Z,1008.1
2019-03-18T07:57:36.566Z,1008.1
2019-03-18T07:58:48.804Z,1008.1
2019-03-18T08:00:01.053Z,1008.1
2019-03-18T08:01:13.283Z,1008
2019-03-18T08:02:25.441Z,1008
2019-03-18T08:03:37.653Z,1008.1
2019-03-18T08:04:49.739Z,1008.2
2019-03-18T08:06:01.964Z,1008.2
2019-03-18T08:07:14.220Z,1008.3
2019-03-18T08:08:26.417Z,1008.3
2019-03-18T08:09:38.588Z,1008.1
2019-03-18T08:10:50.714Z,1008.3
2019-03-18T08:12:03.082Z,1008.3
2019-03-18T08:13:15.136Z,1008.3
2019-03-18T08:14:27.406Z,1008.3
2019-03-18T08:15:39.674Z,1008.2
2019-03-18T08:16:51.776Z,1008.3
2019-03-18T08:18:03.900Z,1008.3
2019-03-18T08:19:16.128Z,1008.5
2019-03-18T08:20:28.374Z,1008.4
2019-03-18T08:21:40.592Z,1008.3
2019-03-18T08:22:52.665Z,1008.4
2019-03-18T08:24:04.962Z,1008.4
2019-03-18T08:25:17.158Z,1008.6
2019-03-18T08:26:29.261Z,1008.4
2019-03-18T08:27:41.556Z,1008.4
2019-03-18T08:28:53.651Z,1008.4
2019-03-18T08:30:05.917Z,1008.3
2019-03-18T08:31:18.048Z,1008.4
2019-03-18T08:32:30.420Z,1008.5
2019-03-18T08:33:42.654Z,1008.6
2019-03-18T08:34:54.743Z,1008.4
2019-03-18T08:36:06.866Z,1008.8
2019-03-18T08:37:19.116Z,1008.8
2019-03-18T08:38:31.357Z,1008.8
2019-03-18T08:39:43.417Z,1008.5
2019-03-18T08:40:55.703Z,1008.4
2019-03-18T08:42:07.822Z,1008.5
2019-03-18T08:43:20.142Z,1008.7
2019-03-18T08:44:32.348Z,1008.8
2019-03-18T08:45:44.504Z,1008.6
2019-03-18T08:46:56.626Z,1008.5
2019-03-18T08:48:08.782Z,1008.8
2019-03-18T08:49:21.087Z,1008.8
2019-03-18T08:50:33.298Z,1008.8
2019-03-18T08:51:45.401Z,1008.8
2019-03-18T08:52:59.231Z,1008.9
2019-03-18T08:54:09.835Z,1008.6
2019-03-18T08:55:22.313Z,1008.9
2019-03-18T08:56:34.268Z,1008.8
2019-03-18T08:57:46.468Z,1008.7
2019-03-18T08:58:58.687Z,1008.6
2019-03-18T09:00:10.739Z,1008.6
2019-03-18T09:01:22.927Z,1008.6
2019-03-18T09:03:47.453Z,1009
2019-03-18T09:04:59.619Z,1008.9
2019-03-18T09:06:11.807Z,1009
2019-03-18T09:07:23.923Z,1008.8
2019-03-18T09:08:36.269Z,1008.8
2019-03-18T09:09:48.313Z,1008.8
2019-03-18T09:11:00.662Z,1008.8
2019-03-18T09:12:12.765Z,1008.8
2019-03-18T09:13:24.967Z,1008.8
2019-03-18T09:14:37.186Z,1008.8
2019-03-18T09:15:49.373Z,1008.9
2019-03-18T09:17:01.574Z,1008.9
2019-03-18T09:18:13.744Z,1008.8
2019-03-18T09:19:25.990Z,1008.9
2019-03-18T09:20:38.156Z,1008.9
2019-03-18T09:21:50.422Z,1008.9
2019-03-18T09:23:02.723Z,1008.8
2019-03-18T09:24:14.743Z,1008.9
2019-03-18T09:25:26.834Z,1008.9
2019-03-18T09:26:39.122Z,1008.9
2019-03-18T09:27:51.319Z,1008.9
2019-03-18T09:29:03.548Z,1008.9
2019-03-18T09:30:15.835Z,1008.9
2019-03-18T09:31:27.937Z,1008.9
2019-03-18T09:32:40.748Z,1009
2019-03-18T09:33:52.321Z,1009.1
2019-03-18T09:35:04.398Z,1009.3
2019-03-18T09:36:16.823Z,1009.1
2019-03-18T09:37:28.876Z,1009.3
2019-03-18T09:38:41.064Z,1009.1
2019-03-18T09:39:53.218Z,1009.1
2019-03-18T09:41:05.429Z,1009.2
2019-03-18T09:42:17.604Z,1009.1
2019-03-18T09:43:29.957Z,1009.3
2019-03-18T09:44:42.146Z,1009
2019-03-18T09:45:54.161Z,1009.3
2019-03-18T09:47:06.393Z,1009.3
2019-03-18T09:48:18.646Z,1009.3
2019-03-18T09:49:30.928Z,1009.3
2019-03-18T09:50:43.033Z,1009.3
2019-03-18T09:51:55.273Z,1009.4
2019-03-18T09:53:07.515Z,1009.3
2019-03-18T09:54:19.646Z,1009
2019-03-18T09:55:31.725Z,1009.1
2019-03-18T09:56:44.109Z,1009.1
2019-03-18T09:57:57.141Z,1009.2
2019-03-18T09:59:08.522Z,1009.2
2019-03-18T10:00:20.673Z,1009.2
2019-03-18T10:01:32.764Z,1009.1
2019-03-18T10:02:44.988Z,1009.2
2019-03-18T10:03:57.355Z,1009.2
2019-03-18T10:05:09.296Z,1009.2
2019-03-18T10:06:21.495Z,1009.4
2019-03-18T10:07:33.801Z,1009.5
2019-03-18T10:08:45.971Z,1009.6
2019-03-18T10:09:58.246Z,1009.6
2019-03-18T10:11:10.350Z,1009.5
2019-03-18T10:12:22.543Z,1009.6
2019-03-18T10:13:34.749Z,1009.4
2019-03-18T10:14:46.876Z,1009.5
2019-03-18T10:15:59.148Z,1009.5
2019-03-18T10:17:11.251Z,1009.5
2019-03-18T10:18:23.448Z,1009.5
2019-03-18T10:19:35.823Z,1009.4
2019-03-18T10:20:48.034Z,1009.5
2019-03-18T10:22:00.095Z,1009.1
2019-03-18T10:23:12.225Z,1009.6
2019-03-18T10:24:24.464Z,1009.4
2019-03-18T10:25:36.610Z,1009.6
2019-03-18T10:26:48.871Z,1009.6
2019-03-18T10:28:01.065Z,1009.6
2019-03-18T10:29:13.270Z,1009.3
2019-03-18T10:30:25.429Z,1009.7
2019-03-18T10:31:37.582Z,1009.2
2019-03-18T10:32:49.890Z,1009.6
2019-03-18T10:34:02.053Z,1009.3
2019-03-18T10:35:14.270Z,1009.6
2019-03-18T10:36:26.365Z,1009.7
2019-03-18T10:37:38.563Z,1009.7
2019-03-18T10:38:50.776Z,1009.2
2019-03-18T10:40:03.014Z,1009.7
2019-03-18T10:41:15.228Z,1009.7
2019-03-18T10:42:27.364Z,1009.8
2019-03-18T10:43:39.682Z,1009.4
2019-03-18T10:44:51.895Z,1009.4
2019-03-18T10:46:04.054Z,1009.4
2019-03-18T10:47:16.210Z,1009.4
2019-03-18T10:48:28.317Z,1009.4
2019-03-18T10:49:40.531Z,1009.5
2019-03-18T10:50:52.707Z,1009.6
2019-03-18T10:52:04.972Z,1009.9
2019-03-18T10:53:17.242Z,1009.5
2019-03-18T10:54:29.355Z,1009.9
2019-03-18T10:55:41.493Z,1009.4
2019-03-18T10:56:53.850Z,1009.9
2019-03-18T10:58:05.894Z,1009.9
2019-03-18T10:59:18.173Z,1009.5
2019-03-18T11:00:30.269Z,1009.5
2019-03-18T11:01:42.504Z,1010
2019-03-18T11:02:54.662Z,1010
2019-03-18T11:04:06.938Z,1009.9
2019-03-18T11:05:19.129Z,1009.9
2019-03-18T11:06:31.333Z,1009.9
2019-03-18T11:07:43.544Z,1009.6
2019-03-18T11:08:55.799Z,1009.6
2019-03-18T11:10:07.823Z,1009.6
2019-03-18T11:11:20.180Z,1009.5
2019-03-18T11:12:32.389Z,1009.4
2019-03-18T11:13:44.577Z,1009.5
2019-03-18T11:14:56.628Z,1009.4
2019-03-18T11:16:08.808Z,1009.6
2019-03-18T11:17:21.274Z,1009.6
2019-03-18T11:18:33.212Z,1009.7
2019-03-18T11:19:45.436Z,1009.7
2019-03-18T11:20:57.949Z,1009.6
2019-03-18T11:22:09.830Z,1009.6
2019-03-18T11:23:22.098Z,1010
2019-03-18T11:24:34.544Z,1010.1
2019-03-18T11:25:46.468Z,1010.1
2019-03-18T11:26:58.875Z,1010
2019-03-18T11:28:10.836Z,1009.7
2019-03-18T11:29:23.022Z,1009.7
2019-03-18T11:30:35.250Z,1009.6
2019-03-18T11:31:47.707Z,1009.7
2019-03-18T11:32:59.910Z,1009.7
2019-03-18T11:34:11.795Z,1009.8
2019-03-18T11:35:24.002Z,1009.8
2019-03-18T11:36:36.239Z,1009.6
2019-03-18T11:37:48.390Z,1009.7
2019-03-18T11:39:00.564Z,1009.8
2019-03-18T11:40:12.742Z,1009.8
2019-03-18T11:41:25.268Z,1009.8
2019-03-18T11:42:37.165Z,1009.8
2019-03-18T11:43:49.351Z,1010
2019-03-18T11:45:01.651Z,1010.1
2019-03-18T11:46:13.722Z,1010.1
2019-03-18T11:47:25.924Z,1010.1
2019-03-18T11:48:38.263Z,1010.1
2019-03-18T11:49:50.353Z,1010.1
2019-03-18T11:51:02.496Z,1010.2
2019-03-18T11:52:14.938Z,1010.2
2019-03-18T11:53:26.982Z,1010.3
2019-03-18T11:54:39.148Z,1010.4
2019-03-18T11:55:51.591Z,1010.4
2019-03-18T11:57:03.593Z,1010.3
2019-03-18T11:58:15.678Z,1010.3
2019-03-18T11:59:28.202Z,1010.3
2019-03-18T12:00:40.514Z,1010.3
2019-03-18T12:01:52.428Z,1010.3
2019-03-18T12:03:04.502Z,1010.2
2019-03-18T12:04:16.901Z,1010.3
2019-03-18T12:05:28.962Z,1010.3
2019-03-18T12:06:41.101Z,1010.3
2019-03-18T12:07:53.198Z,1010.3
2019-03-18T12:09:05.641Z,1010.3
2019-03-18T12:10:17.929Z,1010.3
2019-03-18T12:11:30.053Z,1010.3
2019-03-18T12:12:42.128Z,1010.3
2019-03-18T12:13:54.258Z,1010.3
2019-03-18T12:15:06.411Z,1010.3
2019-03-18T12:16:18.613Z,1010.3
2019-03-18T12:17:31.074Z,1010.3
2019-03-18T12:18:43.000Z,1010.3
2019-03-18T12:19:55.467Z,1010.3
2019-03-18T12:21:07.768Z,1010.3
2019-03-18T12:22:19.858Z,1010.3
2019-03-18T12:23:31.890Z,1010.3
2019-03-18T12:24:44.138Z,1010.2
2019-03-18T12:25:56.173Z,1010.3
2019-03-18T12:27:08.620Z,1010.3
2019-03-18T12:28:20.566Z,1010.3
2019-03-18T12:29:32.806Z,1010.3
2019-03-18T12:30:45.242Z,1010.3
2019-03-18T12:31:57.413Z,1010.3
2019-03-18T12:33:09.471Z,1010.2
2019-03-18T12:34:21.543Z,1010.2
2019-03-18T12:35:33.816Z,1010.2
2019-03-18T12:36:46.202Z,1010.2
2019-03-18T12:37:58.383Z,1010.2
2019-03-18T12:39:14.764Z,1010.2
2019-03-18T12:40:22.510Z,1010.1
2019-03-18T12:41:34.756Z,1010.1
2019-03-18T12:42:47.057Z,1010.1
2019-03-18T12:43:59.105Z,1010.1
2019-03-18T12:45:11.403Z,1010.1
2019-03-18T12:46:23.592Z,1010.1
2019-03-18T12:47:35.749Z,1010.1
2019-03-18T12:48:48.651Z,1009.9
2019-03-18T12:50:00.846Z,1010.1
2019-03-18T12:51:12.276Z,1010
2019-03-18T12:52:24.550Z,1010
2019-03-18T12:53:36.931Z,1010
2019-03-18T12:54:48.984Z,1010
2019-03-18T12:56:01.271Z,1009.9
2019-03-18T12:57:13.278Z,1010
2019-03-18T12:58:25.670Z,1010
2019-03-18T12:59:37.602Z,1009.9
2019-03-18T13:00:50.058Z,1010
2019-03-18T13:02:02.096Z,1009.9
2019-03-18T13:03:14.444Z,1009.9
2019-03-18T13:04:26.667Z,1010
2019-03-18T13:05:38.692Z,1010
2019-03-18T13:06:50.820Z,1009.9
2019-03-18T13:08:03.404Z,1010
2019-03-18T13:09:15.265Z,1010
2019-03-18T13:10:27.422Z,1010
2019-03-18T13:11:39.815Z,1010.1
2019-03-18T13:12:51.750Z,1010.1
2019-03-18T13:14:04.217Z,1010
2019-03-18T13:15:16.131Z,1010.1
2019-03-18T13:16:28.335Z,1010
2019-03-18T13:17:40.517Z,1010
2019-03-18T13:18:52.757Z,1010.1
2019-03-18T13:20:04.911Z,1010
2019-03-18T13:21:17.500Z,1010
2019-03-18T13:22:29.545Z,1010
2019-03-18T13:23:41.490Z,1010.1
2019-03-18T13:24:54.058Z,1010
2019-03-18T13:26:05.900Z,1010.1
2019-03-18T13:27:18.331Z,1010.1
2019-03-18T13:28:30.407Z,1010.1
2019-03-18T13:29:42.497Z,1010.1
2019-03-18T13:30:54.746Z,1010.1
2019-03-18T13:32:06.833Z,1010
2019-03-18T13:33:19.361Z,1010
2019-03-18T13:34:31.263Z,1010.1
2019-03-18T13:35:43.461Z,1010.1
2019-03-18T13:36:55.650Z,1010.1
2019-03-18T13:38:07.844Z,1010.1
2019-03-18T13:39:20.056Z,1010
2019-03-18T13:40:32.213Z,1010
2019-03-18T13:41:44.363Z,1010.1
2019-03-18T13:42:56.545Z,1010.1
2019-03-18T13:44:08.861Z,1010.1
2019-03-18T13:45:21.056Z,1010.2
2019-03-18T13:46:33.198Z,1010.3
2019-03-18T13:47:45.343Z,1010.2
2019-03-18T13:48:57.619Z,1010.3
2019-03-18T13:50:09.852Z,1010.4
2019-03-18T13:51:21.996Z,1010.4
2019-03-18T13:52:34.100Z,1010.5
2019-03-18T13:53:46.367Z,1010.6
2019-03-18T13:54:58.491Z,1010.7
2019-03-18T13:56:10.784Z,1010.8
2019-03-18T13:57:23.065Z,1010.8
2019-03-18T13:58:35.106Z,1010.8
2019-03-18T13:59:47.346Z,1010.9
2019-03-18T14:00:59.467Z,1010.9
2019-03-18T14:02:11.706Z,1011.1
2019-03-18T14:03:23.866Z,1011.1
2019-03-18T14:04:36.253Z,1011.1
2019-03-18T14:05:48.408Z,1011
2019-03-18T14:07:00.418Z,1011
2019-03-18T14:08:12.612Z,1011.1
2019-03-18T14:09:24.985Z,1011
2019-03-18T14:10:37.078Z,1010.9
2019-03-18T14:11:49.210Z,1010.9
2019-03-18T14:13:01.521Z,1010.8
2019-03-18T14:14:13.609Z,1010.8
2019-03-18T14:15:25.827Z,1010.8
2019-03-18T14:16:37.975Z,1010.8
2019-03-18T14:17:50.290Z,1010.8
2019-03-18T14:19:02.446Z,1010.8
2019-03-18T14:20:14.597Z,1010.8
2019-03-18T14:21:26.841Z,1010.8
2019-03-18T14:22:38.947Z,1010.9
2019-03-18T14:23:51.143Z,1010.9
2019-03-18T14:25:03.332Z,1010.9
2019-03-18T14:26:15.514Z,1010.9
2019-03-18T14:27:27.777Z,1010.9
2019-03-18T14:28:40.129Z,1010.9
2019-03-18T14:29:52.239Z,1010.9
2019-03-18T14:31:04.328Z,1010.9
2019-03-18T14:32:16.574Z,1010.9
2019-03-18T14:33:28.775Z,1010.8
2019-03-18T14:34:40.880Z,1010.9
2019-03-18T14:35:53.082Z,1010.8
2019-03-18T14:37:06.804Z,1010.9
2019-03-18T14:38:17.668Z,1010.9
2019-03-18T14:39:29.706Z,1010.9
2019-03-18T14:40:41.932Z,1010.9
2019-03-18T14:41:57.159Z,1010.9
2019-03-18T14:43:10.114Z,1010.9
2019-03-18T14:44:18.722Z,1010.9
2019-03-18T14:45:30.764Z,1010.9
2019-03-18T14:46:45.181Z,1010.8
2019-03-18T14:47:55.260Z,1010.9
2019-03-18T14:49:07.326Z,1010.9
2019-03-18T14:50:19.439Z,1010.9
2019-03-18T14:51:31.765Z,1010.9
2019-03-18T14:52:43.833Z,1010.9
2019-03-18T14:53:56.073Z,1010.9
2019-03-18T14:55:08.269Z,1010.9
2019-03-18T14:56:20.475Z,1010.9
2019-03-18T14:57:32.652Z,1010.9
2019-03-18T14:58:44.749Z,1010.9
2019-03-18T14:59:56.967Z,1010.9
2019-03-18T15:01:09.145Z,1010.9
2019-03-18T15:02:21.320Z,1010.9
2019-03-18T15:03:33.588Z,1010.9
2019-03-18T15:04:45.866Z,1010.8
2019-03-18T15:05:58.063Z,1010.8
2019-03-18T15:07:10.120Z,1010.9
2019-03-18T15:08:22.321Z,1010.8
2019-03-18T15:09:34.575Z,1010.8
2019-03-18T15:10:46.802Z,1010.8
2019-03-18T15:11:58.948Z,1010.8
2019-03-18T15:13:43.346Z,1010.8
2019-03-18T15:15:35.452Z,1010.8
2019-03-18T15:16:47.687Z,1010.8